Time;durP1;ratioP1;P1;durP2;ratioP2;P2;SDS_P1;SDS_P2;PMS_P1;PMS_P2;Temp;Humidity;BMP_temperature;BMP_pressure;BME280_temperature;BME280_humidity;BME280_pressure;Samples;Min_cycle;Max_cycle;Signal;HPM_P1;HPM_P2
2023/07/23 00:01:51;;;;;;;4.07;3.42;;;;;;;;;;5071162;28;20430;-79
2023/07/23 00:04:17;;;;;;;5.22;3.67;;;;;;;;;;5070787;28;20057;-79
2023/07/23 00:06:43;;;;;;;5.57;3.90;;;;;;;;;;5071245;28;20025;-79
2023/07/23 00:09:10;;;;;;;4.32;3.47;;;;;;;;;;5071201;28;20021;-79
2023/07/23 00:11:36;;;;;;;5.05;3.60;;;;;;;;;;5074420;28;20032;-79
2023/07/23 00:14:02;;;;;;;4.20;3.53;;;;;;;;;;5074629;28;20104;-79
2023/07/23 00:16:28;;;;;;;4.72;3.70;;;;;;;;;;5074748;28;20436;-78
2023/07/23 00:18:54;;;;;;;5.53;3.45;;;;;;;;;;5074610;28;20100;-79
2023/07/23 00:21:20;;;;;;;4.63;3.55;;;;;;;;;;5074816;28;20479;-79
2023/07/23 00:23:46;;;;;;;5.68;3.50;;;;;;;;;;5074373;28;20043;-78
2023/07/23 00:26:13;;;;;;;4.32;3.45;;;;;;;;;;5074494;28;20025;-78
2023/07/23 00:28:39;;;;;;;4.65;3.70;;;;;;;;;;5074417;28;20078;-79
2023/07/23 00:31:05;;;;;;;5.30;3.95;;;;;;;;;;5074516;28;20032;-79
2023/07/23 00:33:31;;;;;;;5.57;3.78;;;;;;;;;;5074298;28;20954;-78
2023/07/23 00:35:57;;;;;;;4.97;3.60;;;;;;;;;;5074271;28;20032;-78
2023/07/23 00:38:23;;;;;;;4.53;3.60;;;;;;;;;;5074307;28;20104;-78
2023/07/23 00:40:49;;;;;;;4.85;3.75;;;;;;;;;;5074386;28;20029;-79
2023/07/23 00:43:15;;;;;;;5.28;3.88;;;;;;;;;;5074536;28;20033;-79
2023/07/23 00:45:41;;;;;;;4.47;3.50;;;;;;;;;;5074372;28;20541;-79
2023/07/23 00:48:08;;;;;;;3.92;3.40;;;;;;;;;;5074189;28;20056;-79
2023/07/23 00:50:34;;;;;;;6.07;3.83;;;;;;;;;;5074285;28;20023;-78
2023/07/23 00:53:00;;;;;;;4.65;3.80;;;;;;;;;;5074014;28;20433;-79
2023/07/23 00:55:26;;;;;;;5.05;3.60;;;;;;;;;;5074253;28;20052;-79
2023/07/23 00:57:53;;;;;;;4.47;3.78;;;;;;;;;;5073937;28;20029;-78
2023/07/23 01:00:19;;;;;;;6.15;3.85;;;;;;;;;;5073855;28;20123;-78
2023/07/23 01:02:45;;;;;;;4.43;3.40;;;;;;;;;;5073679;28;20040;-79
2023/07/23 01:05:11;;;;;;;3.97;3.50;;;;;;;;;;5073824;28;20033;-79
2023/07/23 01:07:37;;;;;;;4.38;3.75;;;;;;;;;;5073664;28;20024;-79
2023/07/23 01:10:04;;;;;;;4.82;3.65;;;;;;;;;;5073706;28;20059;-79
2023/07/23 01:12:31;;;;;;;5.78;3.78;;;;;;;;;;5073574;28;20523;-79
2023/07/23 01:14:57;;;;;;;5.05;3.55;;;;;;;;;;5073536;28;20074;-79
2023/07/23 01:17:24;;;;;;;4.40;3.63;;;;;;;;;;5073514;28;20056;-78
2023/07/23 01:20:06;;;;;;;5.40;3.72;;;;;;;;;;5073649;28;20089;-79
2023/07/23 01:22:34;;;;;;;4.47;3.72;;;;;;;;;;5073427;28;20029;-78
2023/07/23 01:25:00;;;;;;;5.22;3.72;;;;;;;;;;5073186;28;20032;-78
2023/07/23 01:27:26;;;;;;;5.47;3.50;;;;;;;;;;5073482;28;20482;-78
2023/07/23 01:29:52;;;;;;;4.43;3.55;;;;;;;;;;5073224;28;20025;-78
2023/07/23 01:32:18;;;;;;;6.20;3.60;;;;;;;;;;5073351;28;20101;-78
2023/07/23 01:34:44;;;;;;;4.95;3.95;;;;;;;;;;5073157;28;20031;-79
2023/07/23 01:37:11;;;;;;;4.82;3.70;;;;;;;;;;5073247;28;20020;-78
2023/07/23 01:39:37;;;;;;;5.25;3.70;;;;;;;;;;5073265;28;20024;-78
2023/07/23 01:42:03;;;;;;;4.65;3.85;;;;;;;;;;5073293;28;20024;-79
2023/07/23 01:44:29;;;;;;;5.07;3.88;;;;;;;;;;5073280;28;20041;-77
2023/07/23 01:46:56;;;;;;;4.78;3.80;;;;;;;;;;5072917;28;20024;-77
2023/07/23 01:49:22;;;;;;;4.63;3.70;;;;;;;;;;5073259;28;20020;-79
2023/07/23 01:51:48;;;;;;;4.72;3.80;;;;;;;;;;5072882;28;20017;-77
2023/07/23 01:54:14;;;;;;;4.07;3.38;;;;;;;;;;5072818;28;20036;-79
2023/07/23 01:56:41;;;;;;;5.18;3.55;;;;;;;;;;5072578;28;20028;-79
2023/07/23 01:59:08;;;;;;;4.72;4.10;;;;;;;;;;5072783;28;20052;-79
2023/07/23 02:01:34;;;;;;;4.20;3.42;;;;;;;;;;5072538;28;20021;-79
2023/07/23 02:04:00;;;;;;;4.18;3.60;;;;;;;;;;5072329;28;20060;-79
2023/07/23 02:06:26;;;;;;;4.35;3.60;;;;;;;;;;5072504;28;20071;-78
2023/07/23 02:08:52;;;;;;;4.60;3.60;;;;;;;;;;5072730;28;20040;-78
2023/07/23 02:11:19;;;;;;;5.60;3.60;;;;;;;;;;5072851;28;20029;-77
2023/07/23 02:13:45;;;;;;;4.82;3.60;;;;;;;;;;5072466;28;20094;-77
2023/07/23 02:16:18;;;;;;;4.72;3.58;;;;;;;;;;5072253;28;20025;-77
2023/07/23 02:18:44;;;;;;;;;;;;;;;;;;5072751;28;20028;-76
2023/07/23 02:21:10;;;;;;;4.00;3.60;;;;;;;;;;5072358;28;19904;-77
2023/07/23 02:23:36;;;;;;;5.70;3.72;;;;;;;;;;5072096;28;20033;-77
2023/07/23 02:26:02;;;;;;;5.00;3.50;;;;;;;;;;5072126;28;20029;-78
2023/07/23 02:28:28;;;;;;;4.57;3.30;;;;;;;;;;5072391;28;20032;-78
2023/07/23 02:30:58;;;;;;;5.30;3.70;;;;;;;;;;5072115;28;20466;-77
2023/07/23 02:33:24;;;;;;;4.53;3.33;;;;;;;;;;5071975;28;20036;-77
2023/07/23 02:35:50;;;;;;;5.32;3.63;;;;;;;;;;5072087;28;20035;-78
2023/07/23 02:38:17;;;;;;;6.35;3.92;;;;;;;;;;5072248;28;20448;-77
2023/07/23 02:40:43;;;;;;;4.90;3.47;;;;;;;;;;5071976;28;20031;-78
2023/07/23 02:43:12;;;;;;;5.78;4.00;;;;;;;;;;5071846;28;20090;-78
2023/07/23 02:45:38;;;;;;;4.25;3.60;;;;;;;;;;5072051;28;20377;-77
2023/07/23 02:48:05;;;;;;;4.85;3.53;;;;;;;;;;5071789;28;20025;-77
2023/07/23 02:50:31;;;;;;;4.50;3.63;;;;;;;;;;5071911;28;20470;-78
2023/07/23 02:52:57;;;;;;;5.05;3.45;;;;;;;;;;5072197;28;20039;-78
2023/07/23 02:55:25;;;;;;;4.03;3.40;;;;;;;;;;5072197;28;20509;-78
2023/07/23 02:57:51;;;;;;;4.70;3.40;;;;;;;;;;5071750;28;20033;-77
2023/07/23 03:00:21;;;;;;;5.07;3.63;;;;;;;;;;5071770;28;20031;-77
2023/07/23 03:02:48;;;;;;;4.60;3.50;;;;;;;;;;5071549;28;20124;-77
2023/07/23 03:05:14;;;;;;;4.07;3.30;;;;;;;;;;5071820;28;20374;-77
2023/07/23 03:07:40;;;;;;;4.40;3.50;;;;;;;;;;5072138;28;20356;-77
2023/07/23 03:10:06;;;;;;;4.97;3.50;;;;;;;;;;5071714;28;20069;-77
2023/07/23 03:12:33;;;;;;;4.38;3.40;;;;;;;;;;5071870;28;20082;-77
2023/07/23 03:14:59;;;;;;;4.93;3.30;;;;;;;;;;5071786;28;20067;-77
2023/07/23 03:17:25;;;;;;;4.65;3.80;;;;;;;;;;5071683;28;20020;-77
2023/07/23 03:19:52;;;;;;;4.72;3.50;;;;;;;;;;5071714;28;20099;-77
2023/07/23 03:22:18;;;;;;;4.05;3.20;;;;;;;;;;5071351;28;20532;-77
2023/07/23 03:24:45;;;;;;;4.47;3.55;;;;;;;;;;5071603;28;20394;-77
2023/07/23 03:27:11;;;;;;;4.47;3.33;;;;;;;;;;5071362;28;20450;-77
2023/07/23 03:29:37;;;;;;;4.28;3.30;;;;;;;;;;5071626;28;20051;-77
2023/07/23 03:32:03;;;;;;;4.28;3.30;;;;;;;;;;5071648;28;20028;-77
2023/07/23 03:34:30;;;;;;;4.15;3.33;;;;;;;;;;5071409;28;20025;-77
2023/07/23 03:36:56;;;;;;;4.90;3.30;;;;;;;;;;5071669;28;20107;-77
2023/07/23 03:39:23;;;;;;;4.10;3.20;;;;;;;;;;5071558;28;20032;-77
2023/07/23 03:41:49;;;;;;;4.25;3.35;;;;;;;;;;5071558;28;20576;-77
2023/07/23 03:44:15;;;;;;;4.20;3.42;;;;;;;;;;5071271;28;20111;-78
2023/07/23 03:46:43;;;;;;;4.10;3.28;;;;;;;;;;5074823;28;20031;-77
2023/07/23 03:49:09;;;;;;;4.53;3.38;;;;;;;;;;5075234;28;20025;-77
2023/07/23 03:51:35;;;;;;;5.82;3.35;;;;;;;;;;5075080;28;20028;-77
2023/07/23 03:54:01;;;;;;;4.63;3.22;;;;;;;;;;5075283;28;20032;-77
2023/07/23 03:56:27;;;;;;;5.60;3.40;;;;;;;;;;5075441;28;20498;-77
2023/07/23 03:58:53;;;;;;;4.35;3.35;;;;;;;;;;5075192;28;20457;-77
2023/07/23 04:01:19;;;;;;;4.32;3.67;;;;;;;;;;5075138;28;20085;-77
2023/07/23 04:03:46;;;;;;;4.45;3.40;;;;;;;;;;5074631;28;20494;-77
2023/07/23 04:06:12;;;;;;;4.57;3.50;;;;;;;;;;5074831;28;20056;-77
2023/07/23 04:08:38;;;;;;;5.55;3.30;;;;;;;;;;5074879;28;20099;-77
2023/07/23 04:11:04;;;;;;;3.72;3.33;;;;;;;;;;5074844;28;20035;-77
2023/07/23 04:13:30;;;;;;;4.28;3.50;;;;;;;;;;5074637;28;20033;-77
2023/07/23 04:15:56;;;;;;;3.90;3.50;;;;;;;;;;5074799;28;20025;-77
2023/07/23 04:18:22;;;;;;;4.57;3.47;;;;;;;;;;5074501;28;20471;-77
2023/07/23 04:20:48;;;;;;;4.82;3.47;;;;;;;;;;5074656;28;20024;-77
2023/07/23 04:23:14;;;;;;;4.25;3.20;;;;;;;;;;5074373;28;20485;-77
2023/07/23 04:25:40;;;;;;;4.72;3.28;;;;;;;;;;5074726;28;20039;-77
2023/07/23 04:28:07;;;;;;;4.85;3.50;;;;;;;;;;5074904;28;20056;-77
2023/07/23 04:30:33;;;;;;;5.80;3.60;;;;;;;;;;5074587;28;20047;-77
2023/07/23 04:33:00;;;;;;;4.10;3.20;;;;;;;;;;5074395;28;20032;-77
2023/07/23 04:35:26;;;;;;;5.57;3.17;;;;;;;;;;5074495;28;20378;-77
2023/07/23 04:37:52;;;;;;;5.47;3.53;;;;;;;;;;5074380;28;20059;-77
2023/07/23 04:40:18;;;;;;;4.55;3.65;;;;;;;;;;5074235;28;20032;-77
2023/07/23 04:42:45;;;;;;;4.18;3.20;;;;;;;;;;5074376;28;20378;-77
2023/07/23 04:45:11;;;;;;;4.45;3.50;;;;;;;;;;5074110;28;20096;-78
2023/07/23 04:47:39;;;;;;;4.35;3.38;;;;;;;;;;5074181;28;20032;-77
2023/07/23 04:50:05;;;;;;;5.78;3.40;;;;;;;;;;5074436;28;20033;-77
2023/07/23 04:52:31;;;;;;;4.05;3.35;;;;;;;;;;5074201;28;20020;-77
2023/07/23 04:54:57;;;;;;;3.85;3.20;;;;;;;;;;5073953;28;20029;-77
2023/07/23 04:57:23;;;;;;;4.43;3.28;;;;;;;;;;5073609;28;20024;-77
2023/07/23 04:59:50;;;;;;;3.80;3.22;;;;;;;;;;5073920;28;20082;-77
2023/07/23 05:02:16;;;;;;;4.40;3.35;;;;;;;;;;5073653;28;20025;-77
2023/07/23 05:04:42;;;;;;;4.38;3.28;;;;;;;;;;5073956;28;20394;-77
2023/07/23 05:07:08;;;;;;;4.03;3.40;;;;;;;;;;5074030;28;20036;-77
2023/07/23 05:09:35;;;;;;;4.60;3.60;;;;;;;;;;5073848;28;20038;-77
2023/07/23 05:12:01;;;;;;;4.07;3.40;;;;;;;;;;5074055;28;20027;-77
2023/07/23 05:14:27;;;;;;;4.60;3.20;;;;;;;;;;5073475;28;20373;-77
2023/07/23 05:16:53;;;;;;;4.15;3.10;;;;;;;;;;5073537;28;20025;-77
2023/07/23 05:19:19;;;;;;;3.75;3.30;;;;;;;;;;5073399;28;20052;-77
2023/07/23 05:21:45;;;;;;;4.63;3.35;;;;;;;;;;5073485;28;20417;-77
2023/07/23 05:24:11;;;;;;;3.85;3.25;;;;;;;;;;5073401;28;20043;-77
2023/07/23 05:26:37;;;;;;;4.57;3.20;;;;;;;;;;5073639;28;20078;-77
2023/07/23 05:29:04;;;;;;;4.53;3.40;;;;;;;;;;5073249;28;20021;-77
2023/07/23 05:31:30;;;;;;;3.60;3.05;;;;;;;;;;5073343;28;20020;-77
2023/07/23 05:33:56;;;;;;;3.70;3.25;;;;;;;;;;5073415;28;20367;-77
2023/07/23 05:36:22;;;;;;;3.97;3.20;;;;;;;;;;5073088;28;20089;-76
2023/07/23 05:38:48;;;;;;;3.60;3.17;;;;;;;;;;5073189;28;20035;-76
2023/07/23 05:41:14;;;;;;;4.70;3.40;;;;;;;;;;5073075;28;20394;-76
2023/07/23 05:43:41;;;;;;;4.40;3.20;;;;;;;;;;5072883;28;20029;-76
2023/07/23 05:46:08;;;;;;;4.82;3.53;;;;;;;;;;5072972;28;20033;-76
2023/07/23 05:48:34;;;;;;;4.38;3.55;;;;;;;;;;5072973;28;20379;-76
2023/07/23 05:51:00;;;;;;;3.88;3.30;;;;;;;;;;5072794;28;20105;-77
2023/07/23 05:53:26;;;;;;;4.40;3.17;;;;;;;;;;5072944;28;20040;-77
2023/07/23 05:55:53;;;;;;;4.28;3.22;;;;;;;;;;5073140;28;20062;-77
2023/07/23 05:58:19;;;;;;;3.80;3.08;;;;;;;;;;5072760;28;20056;-76
2023/07/23 06:00:45;;;;;;;3.75;3.13;;;;;;;;;;5073032;28;20028;-77
2023/07/23 06:03:11;;;;;;;5.15;3.10;;;;;;;;;;5072535;28;20052;-76
2023/07/23 06:05:37;;;;;;;5.05;3.40;;;;;;;;;;5072700;28;20016;-76
2023/07/23 06:08:03;;;;;;;5.57;3.55;;;;;;;;;;5072192;28;20056;-76
2023/07/23 06:10:29;;;;;;;4.18;3.25;;;;;;;;;;5072756;28;20028;-76
2023/07/23 06:12:56;;;;;;;4.45;3.42;;;;;;;;;;5072638;28;20028;-76
2023/07/23 06:15:22;;;;;;;3.53;3.00;;;;;;;;;;5072524;28;20075;-76
2023/07/23 06:17:48;;;;;;;4.00;3.30;;;;;;;;;;5072389;28;20490;-76
2023/07/23 06:20:14;;;;;;;4.20;3.40;;;;;;;;;;5072380;28;20032;-76
2023/07/23 06:22:40;;;;;;;3.63;3.20;;;;;;;;;;5072099;28;20032;-76
2023/07/23 06:25:07;;;;;;;3.60;3.13;;;;;;;;;;5072607;28;20028;-76
2023/07/23 06:27:33;;;;;;;3.80;3.03;;;;;;;;;;5072205;28;20486;-76
2023/07/23 06:30:02;;;;;;;3.60;2.88;;;;;;;;;;5072256;28;20040;-77
2023/07/23 06:32:28;;;;;;;4.15;3.30;;;;;;;;;;5072090;28;20024;-77
2023/07/23 06:34:55;;;;;;;4.32;3.35;;;;;;;;;;5072129;28;20387;-77
2023/07/23 06:37:21;;;;;;;4.25;3.28;;;;;;;;;;5072005;28;20021;-77
2023/07/23 06:39:47;;;;;;;6.10;3.30;;;;;;;;;;5072494;28;20029;-77
2023/07/23 06:42:13;;;;;;;3.55;3.03;;;;;;;;;;5071917;28;20052;-77
2023/07/23 06:44:42;;;;;;;5.03;3.42;;;;;;;;;;5072026;28;20193;-77
2023/07/23 06:47:08;;;;;;;5.85;3.33;;;;;;;;;;5070795;28;20032;-78
2023/07/23 06:49:34;;;;;;;4.43;3.30;;;;;;;;;;5071983;28;20044;-77
2023/07/23 06:52:00;;;;;;;4.00;3.10;;;;;;;;;;5071983;28;20437;-77
2023/07/23 06:54:26;;;;;;;3.88;3.15;;;;;;;;;;5071879;28;20528;-77
2023/07/23 06:56:52;;;;;;;4.07;3.20;;;;;;;;;;5071797;28;20474;-77
2023/07/23 06:59:25;;;;;;;4.20;3.13;;;;;;;;;;5071775;28;20525;-78
2023/07/23 07:01:54;;;;;;;4.90;3.15;;;;;;;;;;5071959;28;20479;-77
2023/07/23 07:07:18;;;;;;;4.28;3.33;;;;;;;;;;5070125;28;20031;-78
2023/07/23 07:09:44;;;;;;;4.25;3.40;;;;;;;;;;5071923;28;20020;-78
2023/07/23 07:12:10;;;;;;;3.92;3.50;;;;;;;;;;5071710;28;20021;-78
2023/07/23 07:14:36;;;;;;;4.35;3.20;;;;;;;;;;5071795;28;20109;-77
2023/07/23 07:17:05;;;;;;;4.15;3.50;;;;;;;;;;5071657;28;20467;-77
2023/07/23 07:19:34;;;;;;;3.65;3.00;;;;;;;;;;5073186;28;20029;-77
2023/07/23 07:22:04;;;;;;;3.80;3.03;;;;;;;;;;5075895;28;20028;-77
2023/07/23 07:24:30;;;;;;;4.03;2.97;;;;;;;;;;5075596;28;20037;-78
2023/07/23 07:27:08;;;;;;;3.67;3.13;;;;;;;;;;5075807;28;20481;-78
2023/07/23 07:29:34;;;;;;;4.63;3.22;;;;;;;;;;5075617;28;20021;-78
2023/07/23 07:32:00;;;;;;;3.80;3.15;;;;;;;;;;5075466;28;20024;-77
2023/07/23 07:34:26;;;;;;;4.15;3.50;;;;;;;;;;5075644;28;20060;-78
2023/07/23 07:36:52;;;;;;;4.35;3.35;;;;;;;;;;5075644;28;20036;-77
2023/07/23 07:39:18;;;;;;;4.07;3.35;;;;;;;;;;5075324;28;20536;-78
2023/07/23 07:41:45;;;;;;;3.50;3.05;;;;;;;;;;5075553;28;20028;-78
2023/07/23 07:44:11;;;;;;;4.38;3.20;;;;;;;;;;5075348;28;20032;-78
2023/07/23 07:46:37;;;;;;;4.03;3.15;;;;;;;;;;5075347;28;20024;-77
2023/07/23 07:49:05;;;;;;;3.75;3.17;;;;;;;;;;5075334;28;20033;-77
2023/07/23 07:51:31;;;;;;;4.07;3.08;;;;;;;;;;5075123;28;20016;-77
2023/07/23 07:53:57;;;;;;;3.90;3.28;;;;;;;;;;5075212;28;20054;-77
2023/07/23 07:56:23;;;;;;;3.45;3.08;;;;;;;;;;5075183;28;20029;-77
2023/07/23 07:58:50;;;;;;;3.53;2.97;;;;;;;;;;5075136;28;20032;-77
2023/07/23 08:01:16;;;;;;;4.75;3.20;;;;;;;;;;5074992;28;20051;-77
2023/07/23 08:03:42;;;;;;;3.65;3.22;;;;;;;;;;5074798;28;20044;-78
2023/07/23 08:06:10;;;;;;;3.60;3.00;;;;;;;;;;5075081;28;20024;-77
2023/07/23 08:08:37;;;;;;;3.47;2.97;;;;;;;;;;5075117;28;20082;-77
2023/07/23 08:11:06;;;;;;;3.97;3.40;;;;;;;;;;5075056;28;20351;-77
2023/07/23 08:13:47;;;;;;;3.40;2.90;;;;;;;;;;5075346;28;20028;-65
2023/07/23 08:17:02;;;;;;;3.67;3.00;;;;;;;;;;5074709;28;20493;-66
2023/07/23 08:20:02;;;;;;;3.95;3.33;;;;;;;;;;5066876;28;20032;-66
2023/07/23 08:25:27;;;;;;;3.75;3.08;;;;;;;;;;5070233;28;20479;-66
2023/07/23 08:28:00;;;;;;;4.22;3.30;;;;;;;;;;5074445;28;20498;-66
2023/07/23 08:30:39;;;;;;;3.83;3.20;;;;;;;;;;5073921;28;20378;-66
2023/07/23 08:36:31;;;;;;;;;;;;;;;;;;;;;
2023/07/23 08:40:19;;;;;;;;;;;;;;;;;;;;;
2023/07/23 08:43:17;;;;;;;;;;;;;;;;;;;;;
2023/07/23 08:51:27;;;;;;;4.05;3.20;;;;;;;;;;5090226;27;20396;-67
2023/07/23 08:54:03;;;;;;;4.28;3.00;;;;;;;;;;5089527;28;20028;-67
2023/07/23 08:56:39;;;;;;;4.15;3.50;;;;;;;;;;5089104;28;20063;-67
2023/07/23 08:59:28;;;;;;;3.80;3.20;;;;;;;;;;5089086;28;20109;-67
2023/07/23 09:02:07;;;;;;;3.92;3.20;;;;;;;;;;5089189;28;20028;-67
2023/07/23 09:04:35;;;;;;;4.00;3.33;;;;;;;;;;5089124;28;20107;-67
2023/07/23 09:07:17;;;;;;;3.88;3.10;;;;;;;;;;5087015;28;20547;-67
2023/07/23 09:10:40;;;;;;;3.97;3.05;;;;;;;;;;5089218;28;20067;-67
2023/07/23 09:18:57;;;;;;;4.28;3.40;;;;;;;;;;5082615;28;20453;-67
2023/07/23 09:21:40;;;;;;;;;;;;;;;;;;;;;
2023/07/23 09:24:23;;;;;;;3.35;2.95;;;;;;;;;;5085650;28;20039;-67
2023/07/23 09:26:52;;;;;;;;;;;;;;;;;;5089066;28;20032;-67
2023/07/23 09:29:22;;;;;;;3.65;3.15;;;;;;;;;;5089015;28;20007;-68
2023/07/23 09:34:52;;;;;;;3.88;3.30;;;;;;;;;;5087122;28;20027;-67
2023/07/23 09:40:58;;;;;;;3.47;3.10;;;;;;;;;;5088000;28;20032;-67
2023/07/23 09:43:37;;;;;;;3.67;3.05;;;;;;;;;;5088422;28;20032;-68
2023/07/23 09:46:21;;;;;;;3.95;3.25;;;;;;;;;;5088334;28;20029;-67
2023/07/23 09:48:55;;;;;;;3.67;3.15;;;;;;;;;;5087910;28;20062;-68
2023/07/23 09:51:28;;;;;;;3.45;3.00;;;;;;;;;;5088361;28;20048;-67
2023/07/23 09:57:13;;;;;;;;;;;;;;;;;;;;;
2023/07/23 09:59:57;;;;;;;3.65;3.13;;;;;;;;;;5045727;28;20017;-68
2023/07/23 10:02:58;;;;;;;3.80;3.38;;;;;;;;;;5062877;28;20149;-68
2023/07/23 10:05:37;;;;;;;3.90;3.20;;;;;;;;;;5050549;28;20094;-68
2023/07/23 10:08:35;;;;;;;;;;;;;;;;;;;;;
2023/07/23 10:11:15;;;;;;;4.03;3.15;;;;;;;;;;5072049;28;20394;-68
2023/07/23 10:14:02;;;;;;;4.03;3.00;;;;;;;;;;5074275;28;20024;-68
2023/07/23 10:16:37;;;;;;;4.28;3.08;;;;;;;;;;5074191;28;20031;-68
2023/07/23 10:19:25;;;;;;;3.63;3.10;;;;;;;;;;5074103;28;20094;-69
2023/07/23 10:22:16;;;;;;;;;;;;;;;;;;;;;
2023/07/23 10:25:06;;;;;;;;;;;;;;;;;;;;;
2023/07/23 10:27:58;;;;;;;4.47;3.33;;;;;;;;;;5071561;28;20413;-68
2023/07/23 10:30:59;;;;;;;3.72;3.10;;;;;;;;;;5073949;28;20028;-68
2023/07/23 10:36:13;;;;;;;3.58;3.20;;;;;;;;;;5192143;27;19910;-68
2023/07/23 10:38:42;;;;;;;4.32;3.40;;;;;;;;;;5171760;27;20034;-68
2023/07/23 10:41:43;;;;;;;3.40;2.90;;;;;;;;;;5171657;27;20067;-68
2023/07/23 10:44:29;;;;;;;4.80;3.17;;;;;;;;;;5153512;27;20030;-68
2023/07/23 10:47:18;;;;;;;4.00;3.30;;;;;;;;;;5171690;27;20101;-68
2023/07/23 10:50:11;;;;;;;3.65;3.10;;;;;;;;;;5140200;27;20035;-68
2023/07/23 10:52:46;;;;;;;3.47;3.17;;;;;;;;;;5171296;27;20022;-68
2023/07/23 11:01:40;;;;;;;3.85;3.17;;;;;;;;;;5151771;27;20353;-68
2023/07/23 11:04:11;;;;;;;3.50;3.00;;;;;;;;;;5171180;27;20034;-68
2023/07/23 11:06:46;;;;;;;3.80;3.38;;;;;;;;;;5171184;27;20034;-68
2023/07/23 11:09:26;;;;;;;3.60;3.17;;;;;;;;;;5170915;27;20026;-68
2023/07/23 11:13:25;;;;;;;;;;;;;;;;;;;;;
2023/07/23 11:15:04;;;;;;;;;;;;;;;;;;;;;
2023/07/23 11:17:54;;;;;;;3.47;3.00;;;;;;;;;;5166731;27;20031;-68
2023/07/23 11:20:38;;;;;;;3.88;3.25;;;;;;;;;;5154811;27;20468;-68
2023/07/23 11:23:25;;;;;;;3.65;2.88;;;;;;;;;;5167319;27;20035;-68
2023/07/23 11:25:56;;;;;;;3.72;3.13;;;;;;;;;;5148910;27;20462;-68
2023/07/23 11:28:32;;;;;;;4.07;3.10;;;;;;;;;;5149925;27;20044;-68
2023/07/23 11:30:58;;;;;;;4.43;3.13;;;;;;;;;;5149706;27;20046;-68
2023/07/23 11:33:45;;;;;;;3.80;3.13;;;;;;;;;;5149995;27;20019;-68
2023/07/23 11:36:30;;;;;;;;;;;;;;;;;;;;;
2023/07/23 11:39:26;;;;;;;4.28;3.40;;;;;;;;;;5120583;28;20033;-68
2023/07/23 11:41:52;;;;;;;3.55;3.00;;;;;;;;;;5124787;28;20412;-68
2023/07/23 11:44:38;;;;;;;3.60;3.20;;;;;;;;;;5128945;28;20027;-68
2023/07/23 11:47:04;;;;;;;4.30;3.20;;;;;;;;;;5116949;28;20392;-68
2023/07/23 11:49:30;;;;;;;3.63;3.10;;;;;;;;;;5115526;28;20063;-68
2023/07/23 11:51:58;;;;;;;3.78;3.15;;;;;;;;;;5114997;28;20489;-68
2023/07/23 11:54:33;;;;;;;3.78;3.38;;;;;;;;;;5115023;28;20042;-68
2023/07/23 11:57:09;;;;;;;3.85;3.45;;;;;;;;;;5115610;28;20456;-68
2023/07/23 11:59:39;;;;;;;3.75;3.30;;;;;;;;;;5115075;28;20035;-68
2023/07/23 12:02:07;;;;;;;3.50;2.95;;;;;;;;;;5114988;28;20024;-68
2023/07/23 12:04:49;;;;;;;3.72;3.10;;;;;;;;;;5114593;28;20540;-68
2023/07/23 12:07:43;;;;;;;4.18;3.25;;;;;;;;;;5114483;28;20028;-68
2023/07/23 12:10:39;;;;;;;4.97;3.03;;;;;;;;;;5114805;28;20023;-68
2023/07/23 12:13:46;;;;;;;4.00;3.50;;;;;;;;;;5113989;28;20617;-68
2023/07/23 12:16:30;;;;;;;3.45;2.80;;;;;;;;;;5114664;28;20056;-68
2023/07/23 12:21:58;;;;;;;3.60;3.05;;;;;;;;;;5114490;28;20435;-68
2023/07/23 12:27:41;;;;;;;3.78;2.97;;;;;;;;;;5071608;28;20037;-68
2023/07/23 12:30:20;;;;;;;3.53;2.92;;;;;;;;;;5080269;28;20070;-68
2023/07/23 12:33:05;;;;;;;3.83;3.13;;;;;;;;;;5113407;28;20031;-68
2023/07/23 12:36:21;;;;;;;3.42;3.13;;;;;;;;;;5130437;27;20401;-68
2023/07/23 12:45:13;;;;;;;3.30;3.00;;;;;;;;;;5071292;28;20114;-68
2023/07/23 12:45:22;;;;;;;;;;;;;;;;;;;;;
2023/07/23 12:54:42;;;;;;;3.65;3.28;;;;;;;;;;4991699;28;20080;-68
2023/07/23 12:57:24;;;;;;;;;;;;;;;;;;;;;
2023/07/23 13:03:33;;;;;;;3.20;2.90;;;;;;;;;;5031134;28;20025;-68
2023/07/23 13:06:05;;;;;;;4.00;3.40;;;;;;;;;;5002736;28;20065;-68
2023/07/23 13:08:45;;;;;;;3.35;2.97;;;;;;;;;;5031078;28;20472;-68
2023/07/23 13:11:24;;;;;;;3.95;3.25;;;;;;;;;;5030941;28;20210;-68
2023/07/23 13:13:55;;;;;;;4.38;3.20;;;;;;;;;;5030707;28;20364;-68
2023/07/23 13:16:57;;;;;;;3.70;3.10;;;;;;;;;;5030737;28;20026;-68
2023/07/23 13:19:23;;;;;;;3.40;3.03;;;;;;;;;;4979744;28;20037;-68
2023/07/23 13:23:55;;;;;;;;;;;;;;;;;;;;;
2023/07/23 13:31:29;;;;;;;3.80;3.33;;;;;;;;;;5113527;27;20051;-68
2023/07/23 13:34:01;;;;;;;3.80;3.30;;;;;;;;;;5133519;27;20042;-68
2023/07/23 13:37:03;;;;;;;3.58;3.00;;;;;;;;;;5133419;27;20015;-68
2023/07/23 13:39:22;;;;;;;3.88;3.25;;;;;;;;;;5129166;27;20055;-68
2023/07/23 13:42:02;;;;;;;;;;;;;;;;;;;;;
2023/07/23 13:44:34;;;;;;;5.00;3.50;;;;;;;;;;5133405;27;20019;-68
2023/07/23 13:47:11;;;;;;;3.40;3.10;;;;;;;;;;5133316;27;20023;-68
2023/07/23 13:50:00;;;;;;;4.25;3.30;;;;;;;;;;5133246;27;20027;-68
2023/07/23 13:55:19;;;;;;;3.70;3.30;;;;;;;;;;5114255;27;20491;-68
2023/07/23 13:57:53;;;;;;;4.35;3.38;;;;;;;;;;5133019;27;20035;-68
2023/07/23 14:00:26;;;;;;;3.90;3.10;;;;;;;;;;5133216;27;20024;-68
2023/07/23 14:08:28;;;;;;;3.40;3.10;;;;;;;;;;5029693;28;20097;-79
2023/07/23 14:10:54;;;;;;;3.97;3.50;;;;;;;;;;5099312;27;20038;-78
2023/07/23 14:13:21;;;;;;;3.85;3.30;;;;;;;;;;5133070;27;20469;-78
2023/07/23 14:15:47;;;;;;;5.07;3.70;;;;;;;;;;5132877;27;20487;-78
2023/07/23 14:18:13;;;;;;;3.47;3.10;;;;;;;;;;5133066;27;20392;-78
2023/07/23 14:20:39;;;;;;;3.95;3.10;;;;;;;;;;5132851;27;20048;-78
2023/07/23 14:23:05;;;;;;;3.67;3.28;;;;;;;;;;5133065;27;20023;-78
2023/07/23 14:25:41;;;;;;;4.97;3.67;;;;;;;;;;5132697;27;20030;-78
2023/07/23 14:28:45;;;;;;;3.53;3.10;;;;;;;;;;5132831;27;20536;-78
2023/07/23 14:31:15;;;;;;;3.92;3.15;;;;;;;;;;5111009;28;20051;-78
2023/07/23 14:33:54;;;;;;;;;;;;;;;;;;;;;
2023/07/23 14:36:20;;;;;;;3.85;3.45;;;;;;;;;;5128603;28;20499;-78
2023/07/23 14:38:46;;;;;;;4.50;3.30;;;;;;;;;;5132753;28;20028;-78
2023/07/23 14:41:13;;;;;;;4.25;3.55;;;;;;;;;;5132700;28;20023;-78
2023/07/23 14:43:39;;;;;;;4.20;3.22;;;;;;;;;;5132783;28;20033;-78
2023/07/23 14:46:05;;;;;;;4.18;3.40;;;;;;;;;;5132828;28;20083;-78
2023/07/23 14:48:31;;;;;;;3.90;3.38;;;;;;;;;;5132707;28;20031;-78
2023/07/23 14:50:58;;;;;;;3.55;3.03;;;;;;;;;;5132857;28;20034;-78
2023/07/23 14:53:24;;;;;;;3.65;3.20;;;;;;;;;;5132806;28;20686;-78
2023/07/23 14:55:50;;;;;;;4.28;3.15;;;;;;;;;;5132555;28;20348;-78
2023/07/23 14:58:16;;;;;;;4.35;3.53;;;;;;;;;;5132663;28;20512;-78
2023/07/23 15:00:44;;;;;;;3.83;3.30;;;;;;;;;;5132435;28;20115;-78
2023/07/23 15:03:13;;;;;;;3.92;3.22;;;;;;;;;;5133001;28;20023;-78
2023/07/23 15:05:40;;;;;;;4.25;3.58;;;;;;;;;;5132722;28;20034;-78
2023/07/23 15:08:07;;;;;;;4.60;3.30;;;;;;;;;;5132649;28;20066;-78
2023/07/23 15:10:33;;;;;;;3.63;3.17;;;;;;;;;;5132675;28;20604;-78
2023/07/23 15:13:01;;;;;;;3.65;3.30;;;;;;;;;;5132693;28;20035;-78
2023/07/23 15:15:27;;;;;;;4.47;3.80;;;;;;;;;;5132593;28;20035;-78
2023/07/23 15:17:53;;;;;;;3.92;3.53;;;;;;;;;;5132753;28;20058;-78
2023/07/23 15:20:20;;;;;;;3.85;3.35;;;;;;;;;;5132560;27;20461;-78
2023/07/23 15:22:50;;;;;;;3.75;3.35;;;;;;;;;;5135981;27;20084;-78
2023/07/23 15:25:17;;;;;;;3.63;3.28;;;;;;;;;;5136357;27;20051;-78
2023/07/23 15:27:44;;;;;;;4.07;3.30;;;;;;;;;;5136337;27;20085;-78
2023/07/23 15:30:12;;;;;;;4.50;3.58;;;;;;;;;;5136367;27;20031;-78
2023/07/23 15:32:53;;;;;;;3.80;3.40;;;;;;;;;;5136034;27;20019;-78
2023/07/23 15:35:19;;;;;;;5.18;3.60;;;;;;;;;;5135830;27;20074;-78
2023/07/23 15:37:45;;;;;;;4.20;3.30;;;;;;;;;;5135939;27;20477;-78
2023/07/23 15:40:12;;;;;;;3.80;3.40;;;;;;;;;;5136044;27;20108;-78
2023/07/23 15:42:39;;;;;;;3.40;3.10;;;;;;;;;;5136019;27;20023;-78
2023/07/23 15:45:06;;;;;;;4.43;3.03;;;;;;;;;;5135996;27;20102;-78
2023/07/23 15:47:32;;;;;;;3.97;3.40;;;;;;;;;;5135806;27;20106;-78
2023/07/23 15:49:58;;;;;;;3.83;3.42;;;;;;;;;;5135802;27;20023;-78
2023/07/23 15:52:25;;;;;;;4.63;3.70;;;;;;;;;;5135779;27;20019;-78
2023/07/23 15:54:51;;;;;;;4.97;3.42;;;;;;;;;;5135618;27;20035;-78
2023/07/23 15:57:17;;;;;;;4.47;3.55;;;;;;;;;;5135422;27;20042;-78
2023/07/23 15:59:43;;;;;;;3.70;3.30;;;;;;;;;;5135666;27;20469;-79
2023/07/23 16:02:09;;;;;;;3.60;3.30;;;;;;;;;;5135774;27;20484;-78
2023/07/23 16:04:41;;;;;;;4.35;3.55;;;;;;;;;;5135499;27;20484;-78
2023/07/23 16:07:07;;;;;;;4.05;3.40;;;;;;;;;;5135527;27;20383;-78
2023/07/23 16:09:33;;;;;;;4.10;3.55;;;;;;;;;;5135324;27;20170;-78
2023/07/23 16:12:09;;;;;;;4.55;3.30;;;;;;;;;;5135290;27;20451;-78
2023/07/23 16:14:35;;;;;;;3.75;3.25;;;;;;;;;;5135275;27;20448;-78
2023/07/23 16:17:01;;;;;;;3.80;3.40;;;;;;;;;;5135380;27;20035;-78
2023/07/23 16:19:27;;;;;;;3.97;3.42;;;;;;;;;;5135196;27;20035;-78
2023/07/23 16:21:53;;;;;;;3.67;3.30;;;;;;;;;;5134999;27;20148;-78
2023/07/23 16:24:19;;;;;;;3.80;3.40;;;;;;;;;;5135121;27;20480;-78
2023/07/23 16:26:46;;;;;;;4.15;3.28;;;;;;;;;;5135108;27;20031;-78
2023/07/23 16:29:12;;;;;;;3.97;3.50;;;;;;;;;;5135075;27;20377;-78
2023/07/23 16:31:38;;;;;;;4.18;3.42;;;;;;;;;;5134710;27;20027;-78
2023/07/23 16:34:05;;;;;;;4.10;3.60;;;;;;;;;;5134888;27;20051;-78
2023/07/23 16:36:31;;;;;;;4.53;3.45;;;;;;;;;;5135176;27;20472;-79